Airfield :
LOGIN :

Register | Disclaimer

   EN    FR    IT 

 










Legend :    VFR   Marginal VFR   IFR   Intensive IFR   Very Intensive IFR
Visi :
Ceiling :
>= 8 km
>= 3000ft
5 to 8 km
1000 to 3000 ft
1500m to 5 km
500 to 1000 ft
800 to 1500m
200 to 500 ft
< 800m
< 200 ft
Symbols :   Thunderstorms  Fog  Heavy snow  Heavy precipitations  Wind > 20 kt
SIGMETs :     Misc.  Thunderstorms  Icing  Turbulence  Mountain Waves  Volcanic Ashes







- Airport Elevation : 600 ft
- IATA code : VIE


LOWW - Vienna Schwechat

CURRENT METAR :
  • 181550Z 15017KT CAVOK 25/12 Q1019 NOSIG

EXPIRED METARs :
  • 181520Z 15017KT CAVOK 25/12 Q1019 NOSIG
  • 181450Z 15018KT CAVOK 26/12 Q1019 NOSIG
  • 181420Z 15018KT CAVOK 26/12 Q1019 NOSIG
  • 181350Z 15018KT CAVOK 26/12 Q1019 NOSIG
  • 181320Z 14018KT CAVOK 26/12 Q1019 NOSIG

TAF TAF LOWW
Valid from the 18 at 15:00 until the 19 at 21:00 UTC


181415Z 1815/1921 15016KT CAVOK TX26/1914Z TN14/1902Z
BECMG 1815/1817 14010KT
BECMG 1903/1905 VRB02KT
TEMPO 1908/1915 22008KT 9999 FEW050CB SCT100
No reported NOTAMs for that airfield.



MET'MAP, your aeronautical weather chart ! - Copyright ORBIFLY December 2007 - Disclaimer

ORBIFLY MET'MAP TEAM :

Programming & Development : Alexandra Zaïnal
Concept & Development : Baudouin d'Aumeries
Co-Development & Prog : Marc-Olivier Méhu
Technical & hardware support : Manuel Goepfert

Contact : metmap@orbifly.com




SOURCES & CREDITS :

   NOAA